sensor_id;sensor_type;location;lat;lon;timestamp;temperature;humidity
76857;DHT22;69705;44.686;37.628;2023-05-07T00:00:36;18.28;76.97
76857;DHT22;69705;44.686;37.628;2023-05-07T00:03:03;18.28;76.73
76857;DHT22;69705;44.686;37.628;2023-05-07T00:05:30;18.28;76.64
76857;DHT22;69705;44.686;37.628;2023-05-07T00:07:57;18.25;77.06
76857;DHT22;69705;44.686;37.628;2023-05-07T00:10:24;18.21;77.33
76857;DHT22;69705;44.686;37.628;2023-05-07T00:12:51;18.15;78.12
76857;DHT22;69705;44.686;37.628;2023-05-07T00:15:18;18.10;78.53
76857;DHT22;69705;44.686;37.628;2023-05-07T00:17:45;18.07;78.67
76857;DHT22;69705;44.686;37.628;2023-05-07T00:20:12;18.02;78.53
76857;DHT22;69705;44.686;37.628;2023-05-07T00:22:38;17.97;78.55
76857;DHT22;69705;44.686;37.628;2023-05-07T00:25:05;17.96;78.69
76857;DHT22;69705;44.686;37.628;2023-05-07T00:27:32;17.96;78.53
76857;DHT22;69705;44.686;37.628;2023-05-07T00:29:59;17.95;78.81
76857;DHT22;69705;44.686;37.628;2023-05-07T00:32:26;17.94;78.50
76857;DHT22;69705;44.686;37.628;2023-05-07T00:34:53;17.94;77.94
76857;DHT22;69705;44.686;37.628;2023-05-07T00:37:19;17.93;77.90
76857;DHT22;69705;44.686;37.628;2023-05-07T00:39:47;17.92;78.52
76857;DHT22;69705;44.686;37.628;2023-05-07T00:42:14;17.92;77.53
76857;DHT22;69705;44.686;37.628;2023-05-07T00:44:42;17.95;77.63
76857;DHT22;69705;44.686;37.628;2023-05-07T00:47:10;17.93;77.63
76857;DHT22;69705;44.686;37.628;2023-05-07T00:49:42;17.92;77.08
76857;DHT22;69705;44.686;37.628;2023-05-07T00:52:12;17.85;78.47
76857;DHT22;69705;44.686;37.628;2023-05-07T00:54:40;17.77;78.57
76857;DHT22;69705;44.686;37.628;2023-05-07T00:57:11;17.73;79.02
76857;DHT22;69705;44.686;37.628;2023-05-07T00:59:38;17.74;78.88
76857;DHT22;69705;44.686;37.628;2023-05-07T01:02:06;17.76;79.78
76857;DHT22;69705;44.686;37.628;2023-05-07T01:04:33;17.76;79.62
76857;DHT22;69705;44.686;37.628;2023-05-07T01:07:01;17.80;79.53
76857;DHT22;69705;44.686;37.628;2023-05-07T01:09:28;17.72;80.89
76857;DHT22;69705;44.686;37.628;2023-05-07T01:11:56;17.62;81.04
76857;DHT22;69705;44.686;37.628;2023-05-07T01:14:24;17.58;79.33
76857;DHT22;69705;44.686;37.628;2023-05-07T01:16:52;17.56;80.63
76857;DHT22;69705;44.686;37.628;2023-05-07T01:19:22;17.55;81.93
76857;DHT22;69705;44.686;37.628;2023-05-07T01:21:51;17.49;82.92
76857;DHT22;69705;44.686;37.628;2023-05-07T01:24:19;17.44;84.08
76857;DHT22;69705;44.686;37.628;2023-05-07T01:26:46;17.25;83.61
76857;DHT22;69705;44.686;37.628;2023-05-07T01:29:15;17.20;85.33
76857;DHT22;69705;44.686;37.628;2023-05-07T01:31:43;17.08;86.25
76857;DHT22;69705;44.686;37.628;2023-05-07T01:34:11;17.03;87.04
76857;DHT22;69705;44.686;37.628;2023-05-07T01:36:40;16.96;87.71
76857;DHT22;69705;44.686;37.628;2023-05-07T01:39:09;16.93;87.98
76857;DHT22;69705;44.686;37.628;2023-05-07T01:41:37;16.93;88.73
76857;DHT22;69705;44.686;37.628;2023-05-07T01:44:05;16.89;88.11
76857;DHT22;69705;44.686;37.628;2023-05-07T01:46:33;16.87;88.26
76857;DHT22;69705;44.686;37.628;2023-05-07T01:49:00;16.78;87.24
76857;DHT22;69705;44.686;37.628;2023-05-07T01:51:27;16.61;86.64
76857;DHT22;69705;44.686;37.628;2023-05-07T01:53:54;16.57;86.58
76857;DHT22;69705;44.686;37.628;2023-05-07T01:56:21;16.42;86.08
76857;DHT22;69705;44.686;37.628;2023-05-07T01:58:48;16.36;86.93
76857;DHT22;69705;44.686;37.628;2023-05-07T02:01:17;16.32;87.51
76857;DHT22;69705;44.686;37.628;2023-05-07T02:03:44;16.24;87.51
76857;DHT22;69705;44.686;37.628;2023-05-07T02:06:19;16.16;87.05
76857;DHT22;69705;44.686;37.628;2023-05-07T02:08:47;16.14;87.22
76857;DHT22;69705;44.686;37.628;2023-05-07T02:11:14;16.06;87.09
76857;DHT22;69705;44.686;37.628;2023-05-07T02:13:42;16.04;87.37
76857;DHT22;69705;44.686;37.628;2023-05-07T02:16:08;15.95;87.45
76857;DHT22;69705;44.686;37.628;2023-05-07T02:18:35;15.85;88.06
76857;DHT22;69705;44.686;37.628;2023-05-07T02:21:02;15.76;87.90
76857;DHT22;69705;44.686;37.628;2023-05-07T02:23:29;15.68;88.19
76857;DHT22;69705;44.686;37.628;2023-05-07T02:25:56;15.62;88.09
76857;DHT22;69705;44.686;37.628;2023-05-07T02:28:22;15.58;88.57
76857;DHT22;69705;44.686;37.628;2023-05-07T02:30:53;15.56;88.91
76857;DHT22;69705;44.686;37.628;2023-05-07T02:33:21;15.53;89.12
76857;DHT22;69705;44.686;37.628;2023-05-07T02:35:48;15.49;89.11
76857;DHT22;69705;44.686;37.628;2023-05-07T02:38:16;15.46;89.63
76857;DHT22;69705;44.686;37.628;2023-05-07T02:40:43;15.45;88.74
76857;DHT22;69705;44.686;37.628;2023-05-07T02:43:10;15.44;89.20
76857;DHT22;69705;44.686;37.628;2023-05-07T02:45:38;15.44;88.80
76857;DHT22;69705;44.686;37.628;2023-05-07T02:48:06;15.45;88.46
76857;DHT22;69705;44.686;37.628;2023-05-07T02:50:33;15.44;88.26
76857;DHT22;69705;44.686;37.628;2023-05-07T02:53:00;15.43;87.99
76857;DHT22;69705;44.686;37.628;2023-05-07T02:55:27;15.42;88.41
76857;DHT22;69705;44.686;37.628;2023-05-07T02:57:54;15.40;88.60
76857;DHT22;69705;44.686;37.628;2023-05-07T03:00:21;15.39;88.43
76857;DHT22;69705;44.686;37.628;2023-05-07T03:02:56;15.41;87.93
76857;DHT22;69705;44.686;37.628;2023-05-07T03:05:23;15.40;88.06
76857;DHT22;69705;44.686;37.628;2023-05-07T03:07:49;15.38;87.21
76857;DHT22;69705;44.686;37.628;2023-05-07T03:10:16;15.39;87.58
76857;DHT22;69705;44.686;37.628;2023-05-07T03:12:44;15.40;87.93
76857;DHT22;69705;44.686;37.628;2023-05-07T03:15:15;15.39;87.32
76857;DHT22;69705;44.686;37.628;2023-05-07T03:17:43;15.36;87.80
76857;DHT22;69705;44.686;37.628;2023-05-07T03:20:10;15.36;87.28
76857;DHT22;69705;44.686;37.628;2023-05-07T03:22:37;15.34;87.64
76857;DHT22;69705;44.686;37.628;2023-05-07T03:25:04;15.36;87.74
76857;DHT22;69705;44.686;37.628;2023-05-07T03:27:33;15.34;87.40
76857;DHT22;69705;44.686;37.628;2023-05-07T03:30:00;15.33;87.44
76857;DHT22;69705;44.686;37.628;2023-05-07T03:32:27;15.34;87.31
76857;DHT22;69705;44.686;37.628;2023-05-07T03:34:54;15.33;87.20
76857;DHT22;69705;44.686;37.628;2023-05-07T03:37:22;15.37;87.33
76857;DHT22;69705;44.686;37.628;2023-05-07T03:39:49;15.34;87.30
76857;DHT22;69705;44.686;37.628;2023-05-07T03:42:16;15.38;86.70
76857;DHT22;69705;44.686;37.628;2023-05-07T03:44:43;15.42;86.56
76857;DHT22;69705;44.686;37.628;2023-05-07T03:47:10;15.46;86.08
76857;DHT22;69705;44.686;37.628;2023-05-07T03:49:38;15.55;86.26
76857;DHT22;69705;44.686;37.628;2023-05-07T03:52:05;15.60;85.81
76857;DHT22;69705;44.686;37.628;2023-05-07T03:54:33;15.62;86.79
76857;DHT22;69705;44.686;37.628;2023-05-07T03:57:00;15.60;86.06
76857;DHT22;69705;44.686;37.628;2023-05-07T03:59:28;15.58;86.05
76857;DHT22;69705;44.686;37.628;2023-05-07T04:01:55;15.56;85.96
76857;DHT22;69705;44.686;37.628;2023-05-07T04:04:23;15.63;86.08
76857;DHT22;69705;44.686;37.628;2023-05-07T04:06:50;15.70;84.71
76857;DHT22;69705;44.686;37.628;2023-05-07T04:09:18;15.75;84.68
76857;DHT22;69705;44.686;37.628;2023-05-07T04:11:47;15.77;84.50
76857;DHT22;69705;44.686;37.628;2023-05-07T04:14:14;15.75;84.51
76857;DHT22;69705;44.686;37.628;2023-05-07T04:16:41;15.77;84.16
76857;DHT22;69705;44.686;37.628;2023-05-07T04:19:08;15.78;84.71
76857;DHT22;69705;44.686;37.628;2023-05-07T04:21:37;15.78;85.06
76857;DHT22;69705;44.686;37.628;2023-05-07T04:24:04;15.78;84.74
76857;DHT22;69705;44.686;37.628;2023-05-07T04:26:31;15.80;86.23
76857;DHT22;69705;44.686;37.628;2023-05-07T04:28:58;15.76;86.53
76857;DHT22;69705;44.686;37.628;2023-05-07T04:31:31;15.72;86.12
76857;DHT22;69705;44.686;37.628;2023-05-07T04:33:59;15.63;85.71
76857;DHT22;69705;44.686;37.628;2023-05-07T04:36:27;15.59;87.38
76857;DHT22;69705;44.686;37.628;2023-05-07T04:39:02;15.49;87.15
76857;DHT22;69705;44.686;37.628;2023-05-07T04:41:29;15.54;87.63
76857;DHT22;69705;44.686;37.628;2023-05-07T04:43:57;15.48;89.76
76857;DHT22;69705;44.686;37.628;2023-05-07T04:46:26;15.45;89.71
76857;DHT22;69705;44.686;37.628;2023-05-07T04:48:54;15.38;90.34
76857;DHT22;69705;44.686;37.628;2023-05-07T04:51:21;15.34;91.24
76857;DHT22;69705;44.686;37.628;2023-05-07T04:53:49;15.34;91.10
76857;DHT22;69705;44.686;37.628;2023-05-07T04:56:16;15.37;90.35
76857;DHT22;69705;44.686;37.628;2023-05-07T04:58:45;15.47;90.00
76857;DHT22;69705;44.686;37.628;2023-05-07T05:01:12;15.49;87.87
76857;DHT22;69705;44.686;37.628;2023-05-07T05:03:40;15.44;87.29
76857;DHT22;69705;44.686;37.628;2023-05-07T05:06:08;15.47;90.30
76857;DHT22;69705;44.686;37.628;2023-05-07T05:08:35;15.45;89.65
76857;DHT22;69705;44.686;37.628;2023-05-07T05:11:03;15.53;90.57
76857;DHT22;69705;44.686;37.628;2023-05-07T05:13:33;15.54;90.08
76857;DHT22;69705;44.686;37.628;2023-05-07T05:16:02;15.55;88.61
76857;DHT22;69705;44.686;37.628;2023-05-07T05:18:32;15.61;88.58
76857;DHT22;69705;44.686;37.628;2023-05-07T05:20:59;15.60;88.14
76857;DHT22;69705;44.686;37.628;2023-05-07T05:23:26;15.62;86.71
76857;DHT22;69705;44.686;37.628;2023-05-07T05:25:57;15.55;87.36
76857;DHT22;69705;44.686;37.628;2023-05-07T05:28:25;15.46;87.35
76857;DHT22;69705;44.686;37.628;2023-05-07T05:30:54;15.40;86.41
76857;DHT22;69705;44.686;37.628;2023-05-07T05:33:21;15.47;87.19
76857;DHT22;69705;44.686;37.628;2023-05-07T05:35:49;15.51;87.00
76857;DHT22;69705;44.686;37.628;2023-05-07T05:38:16;15.49;85.80
76857;DHT22;69705;44.686;37.628;2023-05-07T05:40:43;15.45;86.74
76857;DHT22;69705;44.686;37.628;2023-05-07T05:43:10;15.37;84.57
76857;DHT22;69705;44.686;37.628;2023-05-07T05:45:38;15.42;86.99
76857;DHT22;69705;44.686;37.628;2023-05-07T05:48:06;15.41;86.20
76857;DHT22;69705;44.686;37.628;2023-05-07T05:50:33;15.41;86.62
76857;DHT22;69705;44.686;37.628;2023-05-07T05:53:02;15.45;86.09
76857;DHT22;69705;44.686;37.628;2023-05-07T05:55:29;15.57;87.02
76857;DHT22;69705;44.686;37.628;2023-05-07T05:58:00;15.74;86.66
76857;DHT22;69705;44.686;37.628;2023-05-07T06:00:29;15.69;83.71
76857;DHT22;69705;44.686;37.628;2023-05-07T06:03:01;15.84;87.51
76857;DHT22;69705;44.686;37.628;2023-05-07T06:05:28;16.00;84.71
76857;DHT22;69705;44.686;37.628;2023-05-07T06:07:57;16.24;83.97
76857;DHT22;69705;44.686;37.628;2023-05-07T06:10:24;16.36;83.86
76857;DHT22;69705;44.686;37.628;2023-05-07T06:12:52;16.41;81.29
76857;DHT22;69705;44.686;37.628;2023-05-07T06:15:19;16.52;83.59
76857;DHT22;69705;44.686;37.628;2023-05-07T06:17:48;16.70;82.23
76857;DHT22;69705;44.686;37.628;2023-05-07T06:20:16;16.76;82.79
76857;DHT22;69705;44.686;37.628;2023-05-07T06:22:43;16.82;82.65
76857;DHT22;69705;44.686;37.628;2023-05-07T06:25:11;16.85;81.75
76857;DHT22;69705;44.686;37.628;2023-05-07T06:27:39;16.91;81.33
76857;DHT22;69705;44.686;37.628;2023-05-07T06:30:07;16.86;81.52
76857;DHT22;69705;44.686;37.628;2023-05-07T06:32:34;16.91;80.24
76857;DHT22;69705;44.686;37.628;2023-05-07T06:35:00;16.96;80.01
76857;DHT22;69705;44.686;37.628;2023-05-07T06:37:27;16.96;79.28
76857;DHT22;69705;44.686;37.628;2023-05-07T06:39:58;17.05;80.07
76857;DHT22;69705;44.686;37.628;2023-05-07T06:42:25;17.06;79.54
76857;DHT22;69705;44.686;37.628;2023-05-07T06:44:57;17.09;79.22
76857;DHT22;69705;44.686;37.628;2023-05-07T06:47:25;17.10;77.96
76857;DHT22;69705;44.686;37.628;2023-05-07T06:49:54;17.19;79.51
76857;DHT22;69705;44.686;37.628;2023-05-07T06:52:24;17.28;79.66
76857;DHT22;69705;44.686;37.628;2023-05-07T06:54:52;17.26;78.75
76857;DHT22;69705;44.686;37.628;2023-05-07T06:57:21;17.33;79.02
76857;DHT22;69705;44.686;37.628;2023-05-07T06:59:48;17.41;78.72
76857;DHT22;69705;44.686;37.628;2023-05-07T07:02:15;17.43;78.12
76857;DHT22;69705;44.686;37.628;2023-05-07T07:04:42;17.48;78.53
76857;DHT22;69705;44.686;37.628;2023-05-07T07:07:10;17.38;78.15
76857;DHT22;69705;44.686;37.628;2023-05-07T07:09:38;17.32;78.07
76857;DHT22;69705;44.686;37.628;2023-05-07T07:12:07;17.31;78.88
76857;DHT22;69705;44.686;37.628;2023-05-07T07:14:36;17.35;77.82
76857;DHT22;69705;44.686;37.628;2023-05-07T07:17:04;17.36;78.75
76857;DHT22;69705;44.686;37.628;2023-05-07T07:19:32;17.39;77.42
76857;DHT22;69705;44.686;37.628;2023-05-07T07:22:00;17.40;79.35
76857;DHT22;69705;44.686;37.628;2023-05-07T07:24:27;17.39;78.07
76857;DHT22;69705;44.686;37.628;2023-05-07T07:26:57;17.46;78.10
76857;DHT22;69705;44.686;37.628;2023-05-07T07:29:26;17.49;77.24
76857;DHT22;69705;44.686;37.628;2023-05-07T07:31:53;17.51;76.14
76857;DHT22;69705;44.686;37.628;2023-05-07T07:34:21;17.54;78.26
76857;DHT22;69705;44.686;37.628;2023-05-07T07:36:48;17.50;77.44
76857;DHT22;69705;44.686;37.628;2023-05-07T07:39:18;17.44;77.66
76857;DHT22;69705;44.686;37.628;2023-05-07T07:41:46;17.44;78.37
76857;DHT22;69705;44.686;37.628;2023-05-07T07:44:13;17.44;76.11
76857;DHT22;69705;44.686;37.628;2023-05-07T07:46:41;17.43;77.02
76857;DHT22;69705;44.686;37.628;2023-05-07T07:49:07;17.41;76.48
76857;DHT22;69705;44.686;37.628;2023-05-07T07:51:35;17.33;77.07
76857;DHT22;69705;44.686;37.628;2023-05-07T07:54:02;17.34;74.71
76857;DHT22;69705;44.686;37.628;2023-05-07T07:56:32;17.34;77.62
76857;DHT22;69705;44.686;37.628;2023-05-07T07:59:01;17.38;75.70
76857;DHT22;69705;44.686;37.628;2023-05-07T08:01:31;17.46;76.77
76857;DHT22;69705;44.686;37.628;2023-05-07T08:03:59;17.45;75.73
76857;DHT22;69705;44.686;37.628;2023-05-07T08:06:28;17.50;76.57
76857;DHT22;69705;44.686;37.628;2023-05-07T08:08:55;17.50;75.54
76857;DHT22;69705;44.686;37.628;2023-05-07T08:11:23;17.55;77.98
76857;DHT22;69705;44.686;37.628;2023-05-07T08:13:50;17.56;75.76
76857;DHT22;69705;44.686;37.628;2023-05-07T08:16:17;17.61;76.95
76857;DHT22;69705;44.686;37.628;2023-05-07T08:18:44;17.56;74.44
76857;DHT22;69705;44.686;37.628;2023-05-07T08:21:11;17.61;75.47
76857;DHT22;69705;44.686;37.628;2023-05-07T08:23:39;17.54;75.49
76857;DHT22;69705;44.686;37.628;2023-05-07T08:26:08;17.47;75.31
76857;DHT22;69705;44.686;37.628;2023-05-07T08:28:36;17.39;75.54
76857;DHT22;69705;44.686;37.628;2023-05-07T08:31:03;17.38;75.71
76857;DHT22;69705;44.686;37.628;2023-05-07T08:33:34;17.35;76.05
76857;DHT22;69705;44.686;37.628;2023-05-07T08:36:01;17.33;74.50
76857;DHT22;69705;44.686;37.628;2023-05-07T08:38:28;17.36;76.05
76857;DHT22;69705;44.686;37.628;2023-05-07T08:40:56;17.43;76.88
76857;DHT22;69705;44.686;37.628;2023-05-07T08:43:26;17.51;76.89
76857;DHT22;69705;44.686;37.628;2023-05-07T08:45:54;17.59;76.85
76857;DHT22;69705;44.686;37.628;2023-05-07T08:48:29;17.68;75.87
76857;DHT22;69705;44.686;37.628;2023-05-07T08:51:05;17.74;75.36
76857;DHT22;69705;44.686;37.628;2023-05-07T08:53:33;17.76;77.04
76857;DHT22;69705;44.686;37.628;2023-05-07T08:56:00;17.78;76.40
76857;DHT22;69705;44.686;37.628;2023-05-07T08:58:29;17.75;75.80
76857;DHT22;69705;44.686;37.628;2023-05-07T09:00:56;17.73;75.38
76857;DHT22;69705;44.686;37.628;2023-05-07T09:03:24;17.68;75.54
76857;DHT22;69705;44.686;37.628;2023-05-07T09:05:54;17.62;75.90
76857;DHT22;69705;44.686;37.628;2023-05-07T09:08:25;17.62;76.48
76857;DHT22;69705;44.686;37.628;2023-05-07T09:10:53;17.67;75.72
76857;DHT22;69705;44.686;37.628;2023-05-07T09:13:20;17.82;76.58
76857;DHT22;69705;44.686;37.628;2023-05-07T09:15:47;17.88;75.89
76857;DHT22;69705;44.686;37.628;2023-05-07T09:18:14;18.04;74.26
76857;DHT22;69705;44.686;37.628;2023-05-07T09:20:41;18.04;73.86
76857;DHT22;69705;44.686;37.628;2023-05-07T09:23:09;18.17;75.44
76857;DHT22;69705;44.686;37.628;2023-05-07T09:25:37;18.30;74.26
76857;DHT22;69705;44.686;37.628;2023-05-07T09:28:11;18.41;74.73
76857;DHT22;69705;44.686;37.628;2023-05-07T09:30:38;18.48;72.70
76857;DHT22;69705;44.686;37.628;2023-05-07T09:33:08;18.58;74.28
76857;DHT22;69705;44.686;37.628;2023-05-07T09:35:39;18.63;72.34
76857;DHT22;69705;44.686;37.628;2023-05-07T09:38:10;18.68;72.32
76857;DHT22;69705;44.686;37.628;2023-05-07T09:40:38;18.65;71.31
76857;DHT22;69705;44.686;37.628;2023-05-07T09:43:11;18.80;71.80
76857;DHT22;69705;44.686;37.628;2023-05-07T09:45:44;18.92;70.97
76857;DHT22;69705;44.686;37.628;2023-05-07T09:48:14;18.92;70.56
76857;DHT22;69705;44.686;37.628;2023-05-07T09:50:51;18.98;71.81
76857;DHT22;69705;44.686;37.628;2023-05-07T09:53:25;19.05;72.77
76857;DHT22;69705;44.686;37.628;2023-05-07T09:55:53;19.17;72.33
76857;DHT22;69705;44.686;37.628;2023-05-07T09:58:21;19.15;69.73
76857;DHT22;69705;44.686;37.628;2023-05-07T10:00:50;19.15;69.77
76857;DHT22;69705;44.686;37.628;2023-05-07T10:03:19;19.23;70.38
76857;DHT22;69705;44.686;37.628;2023-05-07T10:05:56;19.28;70.79
76857;DHT22;69705;44.686;37.628;2023-05-07T10:08:24;19.33;69.68
76857;DHT22;69705;44.686;37.628;2023-05-07T10:10:55;19.41;70.13
76857;DHT22;69705;44.686;37.628;2023-05-07T10:13:24;19.54;68.63
76857;DHT22;69705;44.686;37.628;2023-05-07T10:15:55;19.73;71.01
76857;DHT22;69705;44.686;37.628;2023-05-07T10:18:25;19.81;68.36
76857;DHT22;69705;44.686;37.628;2023-05-07T10:21:17;19.87;68.73
76857;DHT22;69705;44.686;37.628;2023-05-07T10:23:53;19.97;68.22
76857;DHT22;69705;44.686;37.628;2023-05-07T10:26:24;20.09;69.38
76857;DHT22;69705;44.686;37.628;2023-05-07T10:32:12;20.20;66.78
76857;DHT22;69705;44.686;37.628;2023-05-07T10:34:43;20.27;67.54
76857;DHT22;69705;44.686;37.628;2023-05-07T10:37:13;20.31;66.72
76857;DHT22;69705;44.686;37.628;2023-05-07T10:39:40;20.24;67.56
76857;DHT22;69705;44.686;37.628;2023-05-07T10:42:10;20.22;66.91
76857;DHT22;69705;44.686;37.628;2023-05-07T10:44:39;20.14;67.45
76857;DHT22;69705;44.686;37.628;2023-05-07T10:47:16;20.06;68.85
76857;DHT22;69705;44.686;37.628;2023-05-07T10:52:24;19.69;68.48
76857;DHT22;69705;44.686;37.628;2023-05-07T10:57:56;19.51;70.32
76857;DHT22;69705;44.686;37.628;2023-05-07T11:05:38;19.21;72.36
76857;DHT22;69705;44.686;37.628;2023-05-07T11:08:17;19.15;72.52
76857;DHT22;69705;44.686;37.628;2023-05-07T11:11:10;19.10;72.71
76857;DHT22;69705;44.686;37.628;2023-05-07T11:13:48;19.03;73.24
76857;DHT22;69705;44.686;37.628;2023-05-07T11:16:44;18.96;72.77
76857;DHT22;69705;44.686;37.628;2023-05-07T11:19:50;18.84;73.40
76857;DHT22;69705;44.686;37.628;2023-05-07T11:25:19;18.67;73.64
76857;DHT22;69705;44.686;37.628;2023-05-07T11:27:52;18.54;73.77
76857;DHT22;69705;44.686;37.628;2023-05-07T11:30:19;18.48;74.62
76857;DHT22;69705;44.686;37.628;2023-05-07T11:32:47;18.42;73.98
76857;DHT22;69705;44.686;37.628;2023-05-07T11:35:16;18.44;76.02
76857;DHT22;69705;44.686;37.628;2023-05-07T11:37:45;18.36;74.95
76857;DHT22;69705;44.686;37.628;2023-05-07T11:40:14;18.28;75.90
76857;DHT22;69705;44.686;37.628;2023-05-07T11:42:41;18.24;75.94
76857;DHT22;69705;44.686;37.628;2023-05-07T11:45:09;18.24;75.67
76857;DHT22;69705;44.686;37.628;2023-05-07T11:47:36;18.22;75.92
76857;DHT22;69705;44.686;37.628;2023-05-07T11:50:07;18.19;75.92
76857;DHT22;69705;44.686;37.628;2023-05-07T11:52:35;18.19;76.69
76857;DHT22;69705;44.686;37.628;2023-05-07T11:55:03;18.19;76.68
76857;DHT22;69705;44.686;37.628;2023-05-07T11:57:32;18.18;76.50
76857;DHT22;69705;44.686;37.628;2023-05-07T12:00:00;18.22;76.68
76857;DHT22;69705;44.686;37.628;2023-05-07T12:02:40;18.19;75.95
76857;DHT22;69705;44.686;37.628;2023-05-07T12:05:08;18.15;76.11
76857;DHT22;69705;44.686;37.628;2023-05-07T12:07:35;18.17;76.47
76857;DHT22;69705;44.686;37.628;2023-05-07T12:10:05;18.18;76.50
76857;DHT22;69705;44.686;37.628;2023-05-07T12:12:45;18.24;77.49
76857;DHT22;69705;44.686;37.628;2023-05-07T12:15:16;18.23;76.49
76857;DHT22;69705;44.686;37.628;2023-05-07T12:17:44;18.18;76.05
76857;DHT22;69705;44.686;37.628;2023-05-07T12:20:11;18.17;76.67
76857;DHT22;69705;44.686;37.628;2023-05-07T12:22:38;18.21;78.03
76857;DHT22;69705;44.686;37.628;2023-05-07T12:25:05;18.20;76.89
76857;DHT22;69705;44.686;37.628;2023-05-07T12:27:37;18.14;76.46
76857;DHT22;69705;44.686;37.628;2023-05-07T12:30:04;18.13;77.59
76857;DHT22;69705;44.686;37.628;2023-05-07T12:32:32;18.13;77.85
76857;DHT22;69705;44.686;37.628;2023-05-07T12:35:03;18.17;78.20
76857;DHT22;69705;44.686;37.628;2023-05-07T12:37:32;18.15;76.82
76857;DHT22;69705;44.686;37.628;2023-05-07T12:40:09;18.19;77.41
76857;DHT22;69705;44.686;37.628;2023-05-07T12:42:39;18.17;76.95
76857;DHT22;69705;44.686;37.628;2023-05-07T12:45:10;18.22;77.98
76857;DHT22;69705;44.686;37.628;2023-05-07T12:47:38;18.24;76.57
76857;DHT22;69705;44.686;37.628;2023-05-07T12:50:08;18.24;77.79
76857;DHT22;69705;44.686;37.628;2023-05-07T12:52:35;18.18;76.82
76857;DHT22;69705;44.686;37.628;2023-05-07T12:55:08;18.12;76.85
76857;DHT22;69705;44.686;37.628;2023-05-07T12:57:41;18.09;76.44
76857;DHT22;69705;44.686;37.628;2023-05-07T13:00:09;18.14;77.63
76857;DHT22;69705;44.686;37.628;2023-05-07T13:02:40;18.20;76.66
76857;DHT22;69705;44.686;37.628;2023-05-07T13:05:08;18.25;77.69
76857;DHT22;69705;44.686;37.628;2023-05-07T13:07:35;18.32;77.18
76857;DHT22;69705;44.686;37.628;2023-05-07T13:10:04;18.35;76.73
76857;DHT22;69705;44.686;37.628;2023-05-07T13:12:31;18.40;77.24
76857;DHT22;69705;44.686;37.628;2023-05-07T13:14:58;18.39;76.69
76857;DHT22;69705;44.686;37.628;2023-05-07T13:17:25;18.39;76.83
76857;DHT22;69705;44.686;37.628;2023-05-07T13:19:52;18.36;77.15
76857;DHT22;69705;44.686;37.628;2023-05-07T13:22:19;18.36;76.93
76857;DHT22;69705;44.686;37.628;2023-05-07T13:24:45;18.36;77.43
76857;DHT22;69705;44.686;37.628;2023-05-07T13:27:12;18.41;76.70
76857;DHT22;69705;44.686;37.628;2023-05-07T13:29:39;18.43;77.21
76857;DHT22;69705;44.686;37.628;2023-05-07T13:32:06;18.43;77.95
76857;DHT22;69705;44.686;37.628;2023-05-07T13:34:33;18.43;77.44
76857;DHT22;69705;44.686;37.628;2023-05-07T13:37:00;18.50;76.11
76857;DHT22;69705;44.686;37.628;2023-05-07T13:39:27;18.52;75.57
76857;DHT22;69705;44.686;37.628;2023-05-07T13:41:54;18.46;76.57
76857;DHT22;69705;44.686;37.628;2023-05-07T13:44:21;18.39;75.93
76857;DHT22;69705;44.686;37.628;2023-05-07T13:46:47;18.36;76.52
76857;DHT22;69705;44.686;37.628;2023-05-07T13:49:14;18.32;76.36
76857;DHT22;69705;44.686;37.628;2023-05-07T13:51:41;18.32;76.82
76857;DHT22;69705;44.686;37.628;2023-05-07T13:54:08;18.30;77.29
76857;DHT22;69705;44.686;37.628;2023-05-07T13:56:35;18.27;76.34
76857;DHT22;69705;44.686;37.628;2023-05-07T13:59:02;18.23;76.65
76857;DHT22;69705;44.686;37.628;2023-05-07T14:01:29;18.22;76.89
76857;DHT22;69705;44.686;37.628;2023-05-07T14:03:56;18.21;76.86
76857;DHT22;69705;44.686;37.628;2023-05-07T14:06:24;18.18;77.37
76857;DHT22;69705;44.686;37.628;2023-05-07T14:08:51;18.15;77.09
76857;DHT22;69705;44.686;37.628;2023-05-07T14:11:18;18.07;76.70
76857;DHT22;69705;44.686;37.628;2023-05-07T14:13:45;18.04;77.53
76857;DHT22;69705;44.686;37.628;2023-05-07T14:16:11;18.06;78.00
76857;DHT22;69705;44.686;37.628;2023-05-07T14:18:38;18.03;77.60
76857;DHT22;69705;44.686;37.628;2023-05-07T14:21:05;18.10;78.06
76857;DHT22;69705;44.686;37.628;2023-05-07T14:23:36;18.06;77.05
76857;DHT22;69705;44.686;37.628;2023-05-07T14:26:03;18.06;77.60
76857;DHT22;69705;44.686;37.628;2023-05-07T14:28:31;18.08;78.51
76857;DHT22;69705;44.686;37.628;2023-05-07T14:30:57;18.07;77.96
76857;DHT22;69705;44.686;37.628;2023-05-07T14:33:24;17.97;77.54
76857;DHT22;69705;44.686;37.628;2023-05-07T14:35:51;17.95;77.60
76857;DHT22;69705;44.686;37.628;2023-05-07T14:38:19;17.87;78.37
76857;DHT22;69705;44.686;37.628;2023-05-07T14:40:46;17.74;78.11
76857;DHT22;69705;44.686;37.628;2023-05-07T14:43:14;17.63;79.37
76857;DHT22;69705;44.686;37.628;2023-05-07T14:45:41;17.59;79.37
76857;DHT22;69705;44.686;37.628;2023-05-07T14:48:07;17.59;79.87
76857;DHT22;69705;44.686;37.628;2023-05-07T14:50:35;17.54;80.05
76857;DHT22;69705;44.686;37.628;2023-05-07T14:53:02;17.54;80.56
76857;DHT22;69705;44.686;37.628;2023-05-07T14:55:30;17.49;80.61
76857;DHT22;69705;44.686;37.628;2023-05-07T14:57:57;17.48;80.73
76857;DHT22;69705;44.686;37.628;2023-05-07T15:00:28;17.41;80.88
76857;DHT22;69705;44.686;37.628;2023-05-07T15:03:04;17.48;80.82
76857;DHT22;69705;44.686;37.628;2023-05-07T15:05:31;17.47;81.07
76857;DHT22;69705;44.686;37.628;2023-05-07T15:07:59;17.47;80.44
76857;DHT22;69705;44.686;37.628;2023-05-07T15:10:26;17.45;80.41
76857;DHT22;69705;44.686;37.628;2023-05-07T15:12:54;17.35;80.46
76857;DHT22;69705;44.686;37.628;2023-05-07T15:15:21;17.30;80.65
76857;DHT22;69705;44.686;37.628;2023-05-07T15:17:48;17.28;82.10
76857;DHT22;69705;44.686;37.628;2023-05-07T15:20:15;17.25;81.49
76857;DHT22;69705;44.686;37.628;2023-05-07T15:22:43;17.22;81.43
76857;DHT22;69705;44.686;37.628;2023-05-07T15:25:10;17.23;81.62
76857;DHT22;69705;44.686;37.628;2023-05-07T15:27:36;17.17;82.10
76857;DHT22;69705;44.686;37.628;2023-05-07T15:30:04;17.15;82.20
76857;DHT22;69705;44.686;37.628;2023-05-07T15:32:32;17.19;82.10
76857;DHT22;69705;44.686;37.628;2023-05-07T15:34:59;17.09;82.22
76857;DHT22;69705;44.686;37.628;2023-05-07T15:37:26;17.05;82.46
76857;DHT22;69705;44.686;37.628;2023-05-07T15:39:53;17.03;82.33